Time;durP1;ratioP1;P1;durP2;ratioP2;P2;SDS_P1;SDS_P2;PMS_P1;PMS_P2;Temp;Humidity;BMP_temperature;BMP_pressure;BME280_temperature;BME280_humidity;BME280_pressure;Samples;Min_cycle;Max_cycle;Signal;HPM_P1;HPM_P2
2021/09/17 00:01:22;;;;;;;;;25.00;20.25;;;;;22.95;50.28;101061.41;146606;585;46018;-72
2021/09/17 00:03:56;;;;;;;;;17.50;16.00;;;;;22.95;50.69;101057.87;146603;601;46912;-72
2021/09/17 00:06:30;;;;;;;;;21.50;20.50;;;;;22.97;50.55;101059.66;146604;684;46021;-71
2021/09/17 00:09:04;;;;;;;;;20.50;20.25;;;;;22.95;50.70;101058.75;146601;600;46018;-71
2021/09/17 00:11:38;;;;;;;;;21.00;18.75;;;;;22.98;50.28;101071.13;146607;567;46027;-73
2021/09/17 00:14:12;;;;;;;;;19.25;18.25;;;;;22.31;50.36;100964.06;146604;588;46018;-71
2021/09/17 00:16:46;;;;;;;;;20.75;19.75;;;;;22.94;50.04;101070.22;146608;664;46012;-72
2021/09/17 00:19:20;;;;;;;;;19.00;17.00;;;;;22.96;50.09;101070.22;146601;668;47010;-75
2021/09/17 00:21:54;;;;;;;;;21.75;21.25;;;;;22.93;50.18;101062.22;146607;678;46018;-75
2021/09/17 00:24:28;;;;;;;;;19.50;19.00;;;;;22.89;50.13;101056.03;146605;611;46912;-76
2021/09/17 00:27:02;;;;;;;;;21.25;16.75;;;;;22.84;50.12;101055.16;146605;569;46019;-76
2021/09/17 00:29:36;;;;;;;;;17.00;17.00;;;;;22.82;50.02;101043.66;146603;571;47010;-76
2021/09/17 00:32:10;;;;;;;;;19.75;19.50;;;;;22.81;49.83;101041.91;146605;586;46018;-77
2021/09/17 00:34:44;;;;;;;;;19.50;19.00;;;;;22.79;50.00;101035.72;146605;624;46019;-78
2021/09/17 00:37:22;;;;;;;;;20.25;19.00;;;;;22.73;50.05;101039.19;146606;570;46018;-76
2021/09/17 00:39:56;;;;;;;;;21.50;19.00;;;;;22.71;50.07;101034.78;146605;610;46018;-77
2021/09/17 00:42:35;;;;;;;;;20.50;19.25;;;;;22.73;50.50;101033.91;146607;571;46009;-77
2021/09/17 00:45:12;;;;;;;;;19.75;18.25;;;;;22.75;50.56;101029.53;146605;569;46018;-77
2021/09/17 00:47:46;;;;;;;;;21.00;20.75;;;;;22.71;50.89;101018.91;146606;613;47008;-73
2021/09/17 00:50:28;;;;;;;;;20.25;18.75;;;;;22.66;50.26;101018.91;146606;663;46019;-72
2021/09/17 00:53:03;;;;;;;;;20.50;19.25;;;;;22.67;49.80;101011.84;146603;585;47012;-72
2021/09/17 00:55:37;;;;;;;;;21.50;19.25;;;;;22.66;49.88;101010.09;146606;580;46010;-72
2021/09/17 00:58:11;;;;;;;;;20.25;17.75;;;;;22.69;49.96;101007.47;146609;564;46008;-74
2021/09/17 01:00:45;;;;;;;;;20.75;19.75;;;;;22.71;49.44;101017.19;146607;569;46010;-74
2021/09/17 01:03:19;;;;;;;;;17.50;17.50;;;;;22.72;49.69;101026.87;146608;619;45018;-75
2021/09/17 01:05:53;;;;;;;;;20.00;18.00;;;;;22.74;50.18;101029.50;146607;586;46018;-74
2021/09/17 01:08:27;;;;;;;;;21.00;19.00;;;;;22.76;49.86;101033.94;146607;628;46027;-72
2021/09/17 01:11:02;;;;;;;;;20.75;18.50;;;;;22.70;49.82;101027.72;146604;601;46018;-74
2021/09/17 01:13:38;;;;;;;;;20.50;20.00;;;;;22.64;49.82;101036.50;146608;585;46018;-73
2021/09/17 01:16:12;;;;;;;;;21.00;20.75;;;;;22.59;50.07;101031.19;146605;565;47934;-73
2021/09/17 01:18:46;;;;;;;;;16.50;16.50;;;;;22.56;49.99;101033.81;146606;581;46019;-73
2021/09/17 01:21:20;;;;;;;;;24.75;21.75;;;;;22.52;50.36;101026.75;146603;579;47010;-74
2021/09/17 01:23:55;;;;;;;;;21.75;17.50;;;;;22.46;49.96;101026.69;146610;604;46008;-74
2021/09/17 01:26:29;;;;;;;;;20.00;17.50;;;;;22.41;49.76;101012.56;146607;700;46011;-74
2021/09/17 01:29:02;;;;;;;;;20.50;19.00;;;;;22.38;52.24;101001.97;146610;655;46008;-78
2021/09/17 01:31:37;;;;;;;;;20.00;20.00;;;;;22.35;54.40;100999.31;146606;593;46010;-77
2021/09/17 01:34:14;;;;;;;;;22.25;20.25;;;;;22.31;53.67;100992.25;146606;575;46012;-76
2021/09/17 01:36:48;;;;;;;;;24.00;22.25;;;;;22.31;53.16;100989.59;146605;565;46018;-76
2021/09/17 01:39:25;;;;;;;;;20.25;19.00;;;;;22.33;52.55;100990.47;146607;601;46018;-75
2021/09/17 01:41:59;;;;;;;;;20.25;19.75;;;;;22.34;51.71;100982.56;146604;591;47912;-73
2021/09/17 01:44:38;;;;;;;;;25.25;22.25;;;;;22.38;51.20;100980.84;146605;604;46013;-73
2021/09/17 01:47:12;;;;;;;;;20.50;18.75;;;;;22.40;51.30;100973.81;146602;572;47010;-73
2021/09/17 01:49:46;;;;;;;;;22.50;21.50;;;;;22.41;51.17;100982.63;146605;611;47006;-72
2021/09/17 01:52:20;;;;;;;;;18.00;17.25;;;;;22.41;50.89;100987.91;146606;659;47010;-72
2021/09/17 01:54:54;;;;;;;;;19.50;17.00;;;;;22.45;50.93;100989.69;146608;579;46017;-77
2021/09/17 01:57:28;;;;;;;;;21.75;20.25;;;;;22.47;50.98;100978.25;146601;572;47023;-76
2021/09/17 02:00:02;;;;;;;;;22.00;19.75;;;;;22.48;50.82;100976.50;146607;607;46025;-76
2021/09/17 02:02:36;;;;;;;;;20.25;19.00;;;;;22.43;50.54;100965.91;146607;675;46010;-76
2021/09/17 02:05:11;;;;;;;;;19.00;18.75;;;;;22.38;50.29;100959.69;146604;578;46018;-75
2021/09/17 02:07:46;;;;;;;;;19.75;18.50;;;;;22.33;50.41;100964.06;146606;584;46018;-75
2021/09/17 02:10:21;;;;;;;;;19.25;18.50;;;;;22.32;50.46;100968.47;146605;699;46018;-73
2021/09/17 02:12:55;;;;;;;;;20.00;18.25;;;;;22.33;50.41;100964.94;146605;563;46018;-76
2021/09/17 02:15:28;;;;;;;;;19.25;17.25;;;;;22.31;50.15;100969.34;146607;582;46018;-73
2021/09/17 02:18:03;;;;;;;;;22.25;21.00;;;;;22.29;50.33;100965.78;146605;654;47010;-73
2021/09/17 02:20:37;;;;;;;;;21.25;20.50;;;;;22.28;50.50;100955.22;146605;573;46008;-77
2021/09/17 02:23:11;;;;;;;;;20.50;19.25;;;;;22.25;50.27;100958.72;146603;659;46018;-76
2021/09/17 02:25:45;;;;;;;;;21.00;19.75;;;;;22.27;50.48;100964.00;146606;598;46019;-73
2021/09/17 02:28:19;;;;;;;;;20.00;17.75;;;;;22.30;50.07;100974.59;146602;591;47010;-72
2021/09/17 02:30:53;;;;;;;;;19.25;16.00;;;;;22.30;50.03;100966.69;146607;584;46008;-72
2021/09/17 02:33:27;;;;;;;;;19.75;19.75;;;;;22.27;49.94;100972.81;146605;566;46011;-72
2021/09/17 02:36:01;;;;;;;;;24.75;19.00;;;;;22.23;50.41;100967.50;146606;718;46018;-73
2021/09/17 02:38:35;;;;;;;;;24.50;19.75;;;;;22.14;50.25;100966.53;146607;635;46010;-72
2021/09/17 02:41:09;;;;;;;;;21.25;20.50;;;;;22.08;50.17;100970.88;146609;601;46008;-74
2021/09/17 02:43:44;;;;;;;;;24.50;19.25;;;;;22.04;50.29;100975.25;146604;574;47010;-74
2021/09/17 02:46:18;;;;;;;;;20.75;20.75;;;;;22.04;50.38;100975.25;146608;576;45018;-73
2021/09/17 02:48:52;;;;;;;;;18.50;18.50;;;;;22.04;50.74;100980.53;146603;613;47010;-74
2021/09/17 02:51:26;;;;;;;;;23.25;21.50;;;;;22.02;50.71;100969.06;146610;600;45031;-74
2021/09/17 02:54:00;;;;;;;;;19.00;18.50;;;;;21.97;50.88;100975.22;146603;598;46018;-74
2021/09/17 02:56:34;;;;;;;;;20.25;19.00;;;;;21.91;50.97;100969.00;146605;571;46019;-73
2021/09/17 02:59:09;;;;;;;;;20.00;19.00;;;;;21.90;50.80;100966.34;146603;572;46010;-74
2021/09/17 03:01:42;;;;;;;;;20.25;18.50;;;;;21.92;51.13;100968.09;146605;603;46010;-74
2021/09/17 03:04:16;;;;;;;;;24.00;20.50;;;;;21.96;51.75;100963.72;146606;573;46019;-75
2021/09/17 03:06:50;;;;;;;;;17.25;17.00;;;;;22.00;51.38;100972.59;146609;581;46018;-74
2021/09/17 03:09:24;;;;;;;;;21.50;19.25;;;;;22.02;51.41;100974.34;146605;586;46011;-74
2021/09/17 03:11:59;;;;;;;;;18.00;17.75;;;;;22.02;51.43;100958.50;146607;579;46018;-73
2021/09/17 03:14:33;;;;;;;;;21.25;19.00;;;;;22.02;51.05;100955.87;146604;572;46018;-74
2021/09/17 03:17:08;;;;;;;;;23.00;21.00;;;;;21.99;51.51;100949.69;146607;598;46019;-74
2021/09/17 03:19:42;;;;;;;;;21.75;20.00;;;;;21.95;51.09;100948.78;146604;717;46019;-74
2021/09/17 03:22:16;;;;;;;;;20.75;18.75;;;;;21.95;50.36;100948.78;146606;579;46018;-74
2021/09/17 03:24:50;;;;;;;;;17.75;17.00;;;;;21.96;50.48;100939.09;146602;709;47010;-73
2021/09/17 03:27:24;;;;;;;;;19.25;19.00;;;;;21.97;50.67;100948.81;146607;577;46008;-73
2021/09/17 03:29:58;;;;;;;;;19.75;17.75;;;;;22.00;50.27;100947.06;146607;580;45912;-74
2021/09/17 03:32:32;;;;;;;;;17.00;16.50;;;;;22.04;50.56;100946.22;146608;669;46019;-73
2021/09/17 03:35:06;;;;;;;;;23.00;22.75;;;;;22.10;50.56;100953.31;146606;602;46010;-74
2021/09/17 03:37:40;;;;;;;;;18.75;17.25;;;;;22.15;50.09;100946.31;146607;599;46018;-72
2021/09/17 03:40:15;;;;;;;;;24.75;21.00;;;;;22.20;50.09;100952.53;146604;604;47010;-73
2021/09/17 03:42:49;;;;;;;;;19.00;17.75;;;;;22.20;50.00;100944.59;146607;567;46018;-73
2021/09/17 03:45:23;;;;;;;;;20.25;18.75;;;;;22.22;49.65;100944.63;146604;575;46010;-74
2021/09/17 03:47:57;;;;;;;;;21.50;21.50;;;;;22.22;49.80;100942.88;146607;641;46018;-73
2021/09/17 03:50:31;;;;;;;;;19.25;18.00;;;;;22.21;50.05;100940.19;146601;579;46018;-73
2021/09/17 03:53:05;;;;;;;;;19.75;18.50;;;;;22.20;50.11;100941.06;146605;563;47008;-73
2021/09/17 03:55:42;;;;;;;;;22.25;19.25;;;;;22.16;50.29;100936.62;146603;566;46019;-73
2021/09/17 03:58:16;;;;;;;;;21.25;20.25;;;;;22.12;50.76;100933.97;146607;596;46018;-72
2021/09/17 04:00:50;;;;;;;;;23.00;21.00;;;;;22.06;50.79;100923.34;146605;626;46018;-71
2021/09/17 04:03:24;;;;;;;;;23.25;21.50;;;;;22.05;51.00;100925.97;146607;598;47011;-74
2021/09/17 04:05:58;;;;;;;;;21.75;20.75;;;;;22.02;51.41;100928.56;146606;584;47912;-74
2021/09/17 04:08:32;;;;;;;;;22.50;20.75;;;;;21.99;51.67;100932.06;146608;579;46024;-74
2021/09/17 04:11:06;;;;;;;;;20.00;18.75;;;;;21.96;53.18;100926.78;146604;625;46019;-74
2021/09/17 04:13:40;;;;;;;;;24.50;21.75;;;;;21.90;52.05;100926.75;146609;581;46027;-74
2021/09/17 04:16:14;;;;;;;;;26.25;23.50;;;;;21.89;51.66;100933.75;146604;702;46019;-73
2021/09/17 04:18:48;;;;;;;;;22.00;19.75;;;;;21.92;52.30;100933.78;146609;595;46010;-74
2021/09/17 04:21:22;;;;;;;;;20.75;20.75;;;;;21.98;51.92;100934.72;146603;666;47020;-73
2021/09/17 04:23:56;;;;;;;;;20.75;20.25;;;;;22.03;52.49;100931.25;146607;570;46008;-74
2021/09/17 04:26:30;;;;;;;;;20.75;19.75;;;;;22.06;52.46;100930.41;146604;613;46018;-74
2021/09/17 04:29:04;;;;;;;;;22.75;19.75;;;;;22.08;52.44;100940.06;146606;577;47012;-73
2021/09/17 04:31:38;;;;;;;;;20.25;18.25;;;;;22.13;52.22;100945.41;146601;570;46048;-74
2021/09/17 04:34:12;;;;;;;;;24.25;21.25;;;;;22.18;52.38;100954.28;146607;565;46008;-74
2021/09/17 04:36:46;;;;;;;;;23.00;21.75;;;;;22.21;53.04;100946.38;146605;565;46010;-74
2021/09/17 04:39:20;;;;;;;;;22.25;20.00;;;;;22.21;54.05;100954.31;146607;597;46019;-74
2021/09/17 04:41:54;;;;;;;;;21.00;20.25;;;;;22.19;53.52;100952.53;146603;655;46018;-73
2021/09/17 04:44:28;;;;;;;;;26.50;21.75;;;;;22.20;53.70;100951.66;146604;563;46018;-76
2021/09/17 04:47:02;;;;;;;;;26.25;24.00;;;;;22.26;53.46;100954.31;146604;655;46019;-76
2021/09/17 04:49:36;;;;;;;;;31.25;27.00;;;;;22.35;53.25;100952.63;146607;590;46018;-77
2021/09/17 04:52:10;;;;;;;;;26.25;24.25;;;;;22.50;53.38;100957.12;146605;596;46031;-75
2021/09/17 04:54:44;;;;;;;;;25.25;23.75;;;;;22.73;53.28;100959.03;146607;564;46019;-75
2021/09/17 04:57:18;;;;;;;;;27.25;24.00;;;;;23.03;52.69;100964.47;146605;574;46010;-75
2021/09/17 04:59:52;;;;;;;;;28.25;23.50;;;;;23.36;52.27;100964.56;146609;629;46008;-75
2021/09/17 05:02:26;;;;;;;;;27.25;25.25;;;;;23.71;51.64;100975.28;146602;618;46011;-76
2021/09/17 05:05:00;;;;;;;;;26.25;22.25;;;;;24.05;50.96;100962.03;146608;616;46018;-75
2021/09/17 05:07:37;;;;;;;;;27.50;22.50;;;;;24.32;49.63;100958.50;146602;563;46018;-73
2021/09/17 05:10:11;;;;;;;;;22.25;20.50;;;;;24.51;49.62;100962.03;146603;569;46019;-74
2021/09/17 05:12:45;;;;;;;;;28.00;24.00;;;;;24.69;49.31;100956.69;146603;571;47912;-74
2021/09/17 05:15:20;;;;;;;;;25.50;23.25;;;;;24.88;49.56;100946.88;146606;597;47008;-74
2021/09/17 05:17:55;;;;;;;;;28.50;24.75;;;;;25.10;48.56;100948.53;146601;677;46018;-74
2021/09/17 05:20:29;;;;;;;;;22.25;21.00;;;;;25.18;47.96;100945.91;146608;611;46008;-73
2021/09/17 05:23:03;;;;;;;;;23.50;21.25;;;;;25.20;48.08;100937.91;146605;578;46011;-74
2021/09/17 05:25:37;;;;;;;;;22.75;22.00;;;;;25.16;48.70;100934.41;146608;592;46018;-76
2021/09/17 05:28:11;;;;;;;;;24.50;22.25;;;;;25.17;48.53;100937.94;146605;623;46010;-80
2021/09/17 05:30:45;;;;;;;;;23.00;22.00;;;;;25.23;48.46;100937.91;146606;572;46008;-75
2021/09/17 05:33:19;;;;;;;;;20.75;20.00;;;;;25.28;48.20;100937.00;146604;617;46018;-75
2021/09/17 05:35:54;;;;;;;;;25.00;22.75;;;;;25.30;48.02;100924.59;146606;590;46018;-74
2021/09/17 05:38:28;;;;;;;;;25.50;22.50;;;;;25.31;48.60;100933.44;146604;605;46019;-74
2021/09/17 05:41:02;;;;;;;;;23.25;22.25;;;;;25.37;48.52;100927.22;146608;660;47012;-73
2021/09/17 05:43:36;;;;;;;;;22.25;20.00;;;;;25.46;48.56;100933.34;146602;579;47010;-74
2021/09/17 05:46:10;;;;;;;;;24.25;22.50;;;;;25.63;47.85;100932.34;146607;603;46018;-72
2021/09/17 05:48:44;;;;;;;;;29.00;27.75;;;;;25.77;46.81;100939.31;146604;571;46018;-75
2021/09/17 05:51:18;;;;;;;;;15.75;15.25;;;;;25.27;46.54;100831.72;146606;586;46018;-74
2021/09/17 05:53:52;;;;;;;;;29.75;26.75;;;;;25.96;46.34;100941.84;146604;627;46019;-75
2021/09/17 05:56:31;;;;;;;;;28.25;26.00;;;;;26.09;46.17;100946.16;146607;662;46018;-75
2021/09/17 05:59:05;;;;;;;;;25.00;23.50;;;;;26.25;46.06;100955.75;146604;602;46019;-78
2021/09/17 06:01:39;;;;;;;;;28.75;25.75;;;;;26.43;46.00;100951.16;146603;612;46018;-75
2021/09/17 06:04:13;;;;;;;;;26.50;25.50;;;;;26.60;46.09;100943.88;146606;603;46010;-78
2021/09/17 06:06:47;;;;;;;;;29.50;27.75;;;;;26.78;45.67;100947.25;146608;627;46008;-83
2021/09/17 06:09:21;;;;;;;;;28.00;26.25;;;;;26.92;45.20;100948.84;146602;611;46018;-74
2021/09/17 06:11:55;;;;;;;;;27.25;23.75;;;;;27.06;45.60;100946.00;146609;598;46006;-74
2021/09/17 06:14:29;;;;;;;;;28.00;27.00;;;;;27.21;45.02;100947.59;146606;569;46913;-75
2021/09/17 06:17:04;;;;;;;;;31.25;28.75;;;;;27.37;44.88;100948.25;146606;579;46018;-75
2021/09/17 06:19:38;;;;;;;;;30.00;27.50;;;;;27.50;44.57;100941.84;146605;563;47010;-75
2021/09/17 06:22:12;;;;;;;;;27.75;26.25;;;;;27.68;44.44;100954.00;146605;588;47006;-76
2021/09/17 06:24:46;;;;;;;;;30.25;28.50;;;;;27.83;45.06;100947.59;146603;625;46018;-73
2021/09/17 06:27:20;;;;;;;;;29.50;25.25;;;;;27.98;44.48;100958.00;146604;602;46018;-74
2021/09/17 06:29:53;;;;;;;;;27.75;24.25;;;;;28.16;44.48;100958.56;146606;564;46018;-79
2021/09/17 06:32:27;;;;;;;;;26.50;22.75;;;;;28.30;43.86;100949.41;146610;565;45018;-79
2021/09/17 06:35:01;;;;;;;;;27.25;21.00;;;;;28.44;43.70;100958.97;146604;565;46010;-79
2021/09/17 06:37:36;;;;;;;;;22.75;22.50;;;;;28.55;43.87;100952.53;146606;577;47012;-76
2021/09/17 06:40:10;;;;;;;;;22.50;21.50;;;;;28.67;44.11;100948.75;146604;588;46018;-80
2021/09/17 06:42:44;;;;;;;;;25.50;23.75;;;;;28.78;44.30;100952.09;146604;594;46018;-80
2021/09/17 06:45:19;;;;;;;;;24.25;22.00;;;;;28.91;44.13;100952.72;146604;641;46010;-78
2021/09/17 06:47:57;;;;;;;;;24.75;23.00;;;;;29.04;44.97;100941.81;146606;616;47012;-77
2021/09/17 06:50:33;;;;;;;;;19.00;19.00;;;;;29.17;44.43;100949.50;146605;581;46018;-74
2021/09/17 06:53:08;;;;;;;;;21.00;19.50;;;;;29.28;44.43;100953.72;146604;591;47008;-74
2021/09/17 06:55:42;;;;;;;;;24.50;23.00;;;;;29.38;44.67;100952.63;146607;620;45912;-74
2021/09/17 06:58:16;;;;;;;;;23.50;21.75;;;;;29.46;43.90;100953.31;146607;638;46021;-77
2021/09/17 07:00:50;;;;;;;;;21.50;21.00;;;;;28.93;44.31;100854.78;146606;597;46010;-73
2021/09/17 07:03:24;;;;;;;;;21.75;19.75;;;;;29.55;43.83;100946.88;146608;580;46018;-71
2021/09/17 07:05:58;;;;;;;;;21.00;20.00;;;;;29.64;43.41;100947.56;146604;636;47011;-71
2021/09/17 07:08:32;;;;;;;;;19.25;18.00;;;;;29.74;43.81;100950.88;146607;629;46008;-72
2021/09/17 07:11:06;;;;;;;;;24.25;20.75;;;;;29.85;44.43;100938.16;146601;611;47020;-71
2021/09/17 07:13:40;;;;;;;;;20.75;20.00;;;;;29.94;43.25;100934.38;146606;619;46010;-76
2021/09/17 07:16:14;;;;;;;;;21.50;18.75;;;;;30.02;43.40;100937.69;146602;581;47019;-71
2021/09/17 07:18:48;;;;;;;;;20.50;19.00;;;;;30.03;43.31;100943.91;146604;589;46018;-71
2021/09/17 07:21:23;;;;;;;;;22.75;21.75;;;;;30.06;42.91;100943.84;146603;584;47010;-70
2021/09/17 07:23:57;;;;;;;;;27.75;25.00;;;;;30.04;43.38;100951.03;146607;602;47008;-69
2021/09/17 07:26:32;;;;;;;;;24.75;24.00;;;;;30.00;43.97;100952.94;146603;587;46018;-71
2021/09/17 07:29:05;;;;;;;;;24.25;22.50;;;;;29.97;43.86;100962.78;146609;650;46018;-71
2021/09/17 07:31:49;;;;;;;;;22.25;21.00;;;;;29.86;43.81;100953.25;146604;613;47010;-73
2021/09/17 07:34:23;;;;;;;;;20.50;19.50;;;;;29.81;44.71;100952.47;146606;565;46018;-71
2021/09/17 07:36:58;;;;;;;;;21.25;20.00;;;;;29.82;44.46;100950.72;146602;625;46019;-72
2021/09/17 07:39:32;;;;;;;;;23.00;21.75;;;;;29.87;44.74;100943.44;146607;602;46018;-71
2021/09/17 07:42:07;;;;;;;;;22.75;21.00;;;;;29.90;44.53;100949.56;146602;602;46010;-71
2021/09/17 07:44:41;;;;;;;;;21.75;19.75;;;;;29.96;44.57;100945.87;146607;591;46008;-71
2021/09/17 07:47:15;;;;;;;;;21.25;20.25;;;;;30.05;44.54;100947.44;146605;611;47010;-71
2021/09/17 07:49:51;;;;;;;;;21.00;20.00;;;;;30.07;44.23;100943.81;146609;615;46006;-69
2021/09/17 07:52:25;;;;;;;;;23.25;18.50;;;;;30.05;45.32;100942.09;146605;632;46910;-72
2021/09/17 07:54:59;;;;;;;;;22.00;21.00;;;;;30.00;44.63;100942.22;146609;601;45018;-71
2021/09/17 07:57:33;;;;;;;;;20.25;20.00;;;;;29.90;44.92;100944.22;146606;608;46010;-72
2021/09/17 08:00:10;;;;;;;;;20.50;19.25;;;;;29.79;44.70;100932.06;146607;569;46017;-71
2021/09/17 08:02:45;;;;;;;;;24.25;21.00;;;;;29.73;45.50;100940.25;146605;569;46022;-71
2021/09/17 08:05:19;;;;;;;;;21.00;20.75;;;;;29.72;45.77;100946.50;146605;601;46019;-72
2021/09/17 08:07:57;;;;;;;;;20.50;18.75;;;;;29.75;46.26;100959.78;146604;571;47911;-72
2021/09/17 08:10:31;;;;;;;;;22.75;20.75;;;;;29.83;45.53;100947.12;146606;603;46018;-71
2021/09/17 08:13:05;;;;;;;;;25.50;23.25;;;;;29.94;46.17;100939.72;146602;601;46019;-72
2021/09/17 08:15:39;;;;;;;;;21.50;18.75;;;;;30.08;46.05;100937.53;146606;662;46020;-72
2021/09/17 08:18:13;;;;;;;;;21.25;19.75;;;;;30.20;45.45;100947.09;146605;565;46010;-71
2021/09/17 08:21:11;;;;;;;;;21.50;21.00;;;;;30.16;45.19;100940.03;146605;579;46916;-72
2021/09/17 08:23:46;;;;;;;;;23.00;19.75;;;;;30.11;45.63;100947.28;146608;697;46010;-72
2021/09/17 08:26:20;;;;;;;;;24.25;22.75;;;;;30.10;46.26;100946.41;146606;691;46018;-72
2021/09/17 08:28:54;;;;;;;;;21.50;20.50;;;;;30.01;46.32;100937.75;146605;598;46010;-72
2021/09/17 08:31:28;;;;;;;;;23.50;21.25;;;;;29.85;46.40;100940.81;146610;607;46018;-72
2021/09/17 08:34:02;;;;;;;;;27.00;23.00;;;;;29.68;46.46;100935.00;146604;579;46018;-72
2021/09/17 08:36:36;;;;;;;;;25.25;24.00;;;;;29.68;47.02;100940.34;146601;654;47012;-72
2021/09/17 08:39:12;;;;;;;;;25.50;21.75;;;;;29.76;47.47;100942.84;146605;597;46020;-72
2021/09/17 08:41:50;;;;;;;;;25.00;22.00;;;;;29.76;46.35;100938.37;146608;625;46019;-72
2021/09/17 08:44:24;;;;;;;;;20.00;20.00;;;;;29.76;46.42;100934.81;146606;563;46010;-72
2021/09/17 08:46:59;;;;;;;;;23.75;21.50;;;;;29.78;46.53;100932.97;146607;594;46008;-72
2021/09/17 08:49:35;;;;;;;;;18.25;18.00;;;;;29.75;46.03;100928.63;146604;587;46011;-72
2021/09/17 08:52:10;;;;;;;;;25.25;22.00;;;;;29.67;46.40;100928.78;146608;577;46008;-71
2021/09/17 08:54:44;;;;;;;;;23.25;21.00;;;;;29.64;46.54;100918.16;146604;569;46018;-72
2021/09/17 08:57:18;;;;;;;;;21.50;19.25;;;;;29.65;46.37;100921.72;146607;601;46019;-73
2021/09/17 08:59:52;;;;;;;;;27.00;23.25;;;;;29.73;46.49;100911.72;146605;613;46021;-72
2021/09/17 09:02:31;;;;;;;;;24.00;23.50;;;;;29.89;46.27;100902.38;146605;570;46916;-72
2021/09/17 09:05:11;;;;;;;;;22.50;20.25;;;;;30.01;45.58;100898.53;146601;615;47012;-72
2021/09/17 09:07:45;;;;;;;;;24.00;21.25;;;;;30.05;45.78;100892.16;146607;724;46008;-72
2021/09/17 09:10:19;;;;;;;;;25.50;24.75;;;;;30.10;45.73;100900.09;146605;624;46010;-73
2021/09/17 09:13:02;;;;;;;;;25.00;24.00;;;;;30.17;45.67;100899.00;146609;585;46011;-72
2021/09/17 09:15:38;;;;;;;;;27.25;24.75;;;;;30.20;45.46;100887.38;146605;589;46018;-72
2021/09/17 09:18:16;;;;;;;;;23.00;22.50;;;;;30.12;45.59;100882.19;146607;564;46010;-72
2021/09/17 09:20:54;;;;;;;;;24.00;22.25;;;;;29.98;46.28;100895.94;146604;678;46019;-72
2021/09/17 09:23:29;;;;;;;;;24.50;24.25;;;;;29.88;46.31;100889.94;146606;578;46017;-72
2021/09/17 09:26:12;;;;;;;;;25.50;24.00;;;;;29.84;46.56;100890.06;146603;605;46018;-72
2021/09/17 09:28:48;;;;;;;;;25.25;23.00;;;;;29.77;46.29;100878.66;146605;569;46018;-72
2021/09/17 09:31:22;;;;;;;;;24.50;23.25;;;;;29.77;46.05;100889.34;146606;563;46010;-73
2021/09/17 09:33:58;;;;;;;;;21.25;20.25;;;;;29.68;45.86;100890.44;146607;591;46009;-72
2021/09/17 09:36:35;;;;;;;;;24.25;22.25;;;;;29.75;45.76;100885.84;146604;616;46019;-73
2021/09/17 09:39:09;;;;;;;;;25.50;24.00;;;;;29.81;45.83;100887.47;146607;636;46018;-72
2021/09/17 09:41:43;;;;;;;;;20.00;18.00;;;;;29.86;45.09;100888.22;146605;608;46018;-72
2021/09/17 09:44:18;;;;;;;;;27.75;24.75;;;;;30.01;44.95;100885.16;146607;563;46008;-73
2021/09/17 09:46:51;;;;;;;;;21.00;20.75;;;;;30.15;43.46;100885.63;146605;573;46018;-72
2021/09/17 09:49:28;;;;;;;;;22.75;20.00;;;;;30.22;43.59;100878.38;146608;625;46008;-72
2021/09/17 09:52:09;;;;;;;;;20.75;19.75;;;;;30.31;43.29;100867.44;146605;585;46018;-73
2021/09/17 09:54:43;;;;;;;;;24.75;20.75;;;;;30.46;43.66;100870.56;146605;617;47012;-72
2021/09/17 09:57:19;;;;;;;;;20.50;19.75;;;;;30.59;43.16;100850.56;146604;595;46018;-73
2021/09/17 09:59:56;;;;;;;;;22.25;21.75;;;;;30.78;42.48;100849.12;146607;588;46027;-73
2021/09/17 10:02:31;;;;;;;;;21.75;21.75;;;;;30.39;40.89;100762.87;146603;605;46018;-73
2021/09/17 10:05:06;;;;;;;;;24.75;21.50;;;;;31.01;41.33;100840.37;146606;575;46008;-73
2021/09/17 10:07:41;;;;;;;;;25.25;24.50;;;;;31.16;41.38;100830.09;146603;583;47022;-73
2021/09/17 10:10:16;;;;;;;;;23.50;21.00;;;;;31.27;40.95;100823.44;146606;604;46018;-73
2021/09/17 10:12:51;;;;;;;;;24.25;23.00;;;;;31.41;41.50;100840.94;146606;586;46019;-73
2021/09/17 10:15:31;;;;;;;;;21.25;20.25;;;;;31.47;39.88;100843.41;146608;615;46018;-73
2021/09/17 10:18:08;;;;;;;;;21.25;20.00;;;;;31.52;38.87;100850.34;146606;594;46010;-73
2021/09/17 10:20:43;;;;;;;;;22.25;21.25;;;;;31.67;39.28;100853.44;146606;604;46018;-73
2021/09/17 10:23:34;;;;;;;;;21.00;21.00;;;;;31.82;40.46;100838.62;146604;563;46027;-72
2021/09/17 10:26:15;;;;;;;;;23.25;21.25;;;;;32.03;38.89;100832.53;146604;569;47009;-73
2021/09/17 10:29:15;;;;;;;;;21.50;20.00;;;;;32.24;39.75;100838.03;146606;620;46010;-73
2021/09/17 10:31:50;;;;;;;;;25.00;19.50;;;;;32.39;36.80;100821.34;146608;582;46018;-72
2021/09/17 10:34:45;;;;;;;;;21.00;19.00;;;;;32.53;36.19;100828.94;146602;564;46910;-72
2021/09/17 10:37:38;;;;;;;;;21.50;19.75;;;;;32.56;34.31;100823.44;146606;616;46018;-71
2021/09/17 10:40:13;;;;;;;;;19.00;17.00;;;;;32.52;35.88;100821.81;146606;613;46018;-74
2021/09/17 10:43:18;;;;;;;;;20.25;18.50;;;;;32.35;34.34;100822.41;146607;606;46011;-73
2021/09/17 10:45:57;;;;;;;;;22.25;22.25;;;;;32.11;33.54;100810.78;146602;596;46018;-74
2021/09/17 10:49:04;;;;;;;;;19.50;18.25;;;;;31.95;35.11;100811.34;146605;679;46916;-74
2021/09/17 10:51:47;;;;;;;;;19.00;18.50;;;;;31.84;35.26;100815.28;146605;581;46018;-73
2021/09/17 10:54:22;;;;;;;;;23.25;20.50;;;;;31.78;34.33;100807.47;146608;573;46018;-74
2021/09/17 10:57:14;;;;;;;;;21.75;20.25;;;;;31.79;36.95;100807.44;146604;571;46019;-74
2021/09/17 10:59:52;;;;;;;;;20.00;19.25;;;;;31.84;32.90;100801.88;146608;569;46008;-73
2021/09/17 11:02:44;;;;;;;;;18.75;18.50;;;;;31.80;33.77;100794.91;146604;592;46010;-73
2021/09/17 11:05:21;;;;;;;;;21.75;19.25;;;;;31.58;31.83;100784.94;146607;564;47008;-73
2021/09/17 11:07:55;;;;;;;;;24.00;21.00;;;;;31.47;32.24;100781.75;146605;602;46018;-73
2021/09/17 11:10:33;;;;;;;;;20.75;20.50;;;;;31.45;33.44;100784.47;146606;577;46018;-73
2021/09/17 11:13:09;;;;;;;;;18.50;17.25;;;;;31.04;31.63;100700.16;146599;612;46018;-73
2021/09/17 11:15:43;;;;;;;;;19.50;17.00;;;;;31.70;32.97;100784.50;146603;575;46018;-73
2021/09/17 11:18:21;;;;;;;;;21.25;19.00;;;;;31.94;33.01;100773.88;146605;570;46020;-73
2021/09/17 11:20:55;;;;;;;;;18.00;17.25;;;;;32.15;30.66;100775.75;146607;585;46018;-73
2021/09/17 11:23:40;;;;;;;;;19.50;18.00;;;;;32.24;31.23;100768.28;146606;587;45910;-73
2021/09/17 11:26:14;;;;;;;;;22.25;21.50;;;;;32.24;32.68;100758.41;146608;590;46018;-73
2021/09/17 11:29:20;;;;;;;;;18.25;18.25;;;;;32.26;32.19;100753.88;146606;567;46028;-74
2021/09/17 11:32:01;;;;;;;;;18.75;18.75;;;;;32.28;29.89;100735.91;146607;579;47008;-74
2021/09/17 11:34:36;;;;;;;;;19.75;19.75;;;;;32.28;30.00;100733.22;146603;599;46019;-74
2021/09/17 11:37:09;;;;;;;;;22.25;20.50;;;;;32.32;29.86;100725.94;146608;652;46008;-74
2021/09/17 11:39:44;;;;;;;;;20.50;19.75;;;;;32.34;30.63;100730.31;146605;660;45910;-73
2021/09/17 11:42:19;;;;;;;;;19.00;17.75;;;;;32.32;31.28;100725.94;146607;569;46010;-73
2021/09/17 11:44:54;;;;;;;;;21.75;20.00;;;;;32.41;32.32;100722.91;146604;566;46018;-72
2021/09/17 11:47:33;;;;;;;;;17.00;17.00;;;;;32.46;30.33;100720.91;146606;572;46018;-74